createdAt,value
2017-02-01T00:01:01.523Z,0
2017-02-01T00:02:11.695Z,0
2017-02-01T00:03:21.872Z,0
2017-02-01T00:04:31.649Z,0
2017-02-01T00:05:41.378Z,0
2017-02-01T00:06:51.108Z,0
2017-02-01T00:08:00.404Z,0
2017-02-01T00:09:10.580Z,0
2017-02-01T00:10:20.843Z,0
2017-02-01T00:11:31.008Z,0
2017-02-01T00:12:40.741Z,0
2017-02-01T00:13:50.915Z,0
2017-02-01T00:15:00.669Z,0
2017-02-01T00:16:10.455Z,0
2017-02-01T00:17:21.066Z,0
2017-02-01T00:18:30.800Z,0
2017-02-01T00:19:40.985Z,0
2017-02-01T00:20:50.722Z,0
2017-02-01T00:22:00.503Z,0
2017-02-01T00:23:10.236Z,0
2017-02-01T00:24:20.413Z,0
2017-02-01T00:25:29.703Z,0
2017-02-01T00:26:40.314Z,0
2017-02-01T00:27:50.099Z,0
2017-02-01T00:28:59.830Z,0
2017-02-01T00:30:09.551Z,0
2017-02-01T00:31:19.725Z,0
2017-02-01T00:32:29.458Z,0
2017-02-01T00:33:39.238Z,0
2017-02-01T00:34:48.980Z,0
2017-02-01T00:36:00.037Z,0
2017-02-01T00:37:09.775Z,0
2017-02-01T00:38:19.514Z,0
2017-02-01T00:39:29.296Z,0
2017-02-01T00:40:39.473Z,0
2017-02-01T00:41:49.203Z,0
2017-02-01T00:42:59.388Z,0
2017-02-01T00:44:09.124Z,0
2017-02-01T00:45:18.906Z,0
2017-02-01T00:46:29.083Z,0
2017-02-01T00:47:38.823Z,0
2017-02-01T00:48:48.996Z,0
2017-02-01T00:49:59.165Z,0
2017-02-01T00:51:09.401Z,0
2017-02-01T00:52:19.576Z,0
2017-02-01T00:53:29.310Z,0
2017-02-01T00:54:39.048Z,0
2017-02-01T00:55:49.224Z,0
2017-02-01T00:56:59.006Z,0
2017-02-01T00:58:08.294Z,0
2017-02-01T00:59:18.468Z,0
2017-02-01T01:00:28.641Z,0
2017-02-01T01:01:38.811Z,0
2017-02-01T01:02:48.596Z,0
2017-02-01T01:03:58.360Z,0
2017-02-01T01:05:07.656Z,0
2017-02-01T01:06:17.827Z,0
2017-02-01T01:07:27.560Z,0
2017-02-01T01:08:36.901Z,0
2017-02-01T01:09:46.635Z,0
2017-02-01T01:10:56.807Z,0
2017-02-01T01:12:07.422Z,0
2017-02-01T01:13:17.153Z,0
2017-02-01T01:14:26.494Z,0
2017-02-01T01:15:36.228Z,0
2017-02-01T01:16:45.968Z,0
2017-02-01T01:17:55.715Z,0
2017-02-01T01:19:05.015Z,0
2017-02-01T01:20:14.796Z,0
2017-02-01T01:21:24.972Z,0
2017-02-01T01:22:34.705Z,0
2017-02-01T01:23:43.990Z,0
2017-02-01T01:24:53.721Z,0
2017-02-01T01:26:03.940Z,0
2017-02-01T01:27:13.685Z,0
2017-02-01T01:28:23.859Z,0
2017-02-01T01:29:33.588Z,0
2017-02-01T01:30:43.761Z,0
2017-02-01T01:31:53.981Z,0
2017-02-01T01:33:03.711Z,0
2017-02-01T01:34:14.328Z,0
2017-02-01T01:35:24.056Z,0
2017-02-01T01:36:33.793Z,0
2017-02-01T01:37:43.583Z,0
2017-02-01T01:38:53.756Z,0
2017-02-01T01:40:03.488Z,0
2017-02-01T01:41:13.218Z,0
2017-02-01T01:42:22.962Z,0
2017-02-01T01:43:33.191Z,0
2017-02-01T01:44:43.393Z,0
2017-02-01T01:45:52.687Z,0
2017-02-01T01:47:02.862Z,0
2017-02-01T01:48:13.034Z,0
2017-02-01T01:49:23.259Z,0
2017-02-01T01:50:32.990Z,0
2017-02-01T01:51:43.164Z,0
2017-02-01T01:52:52.937Z,0
2017-02-01T01:54:03.115Z,0
2017-02-01T01:55:12.903Z,0
2017-02-01T01:56:23.544Z,0
2017-02-01T01:57:33.277Z,0
2017-02-01T01:58:43.017Z,0
2017-02-01T01:59:53.188Z,0
2017-02-01T02:01:02.975Z,0
2017-02-01T02:02:13.589Z,0
2017-02-01T02:03:24.211Z,0
2017-02-01T02:04:33.974Z,0
2017-02-01T02:05:43.708Z,0
2017-02-01T02:06:53.490Z,0
2017-02-01T02:08:03.667Z,0
2017-02-01T02:09:13.403Z,0
2017-02-01T02:10:23.578Z,0
2017-02-01T02:11:33.317Z,0
2017-02-01T02:12:43.087Z,0
2017-02-01T02:13:52.799Z,0
2017-02-01T02:15:02.522Z,0
2017-02-01T02:16:12.241Z,0
2017-02-01T02:17:22.831Z,0
2017-02-01T02:18:33.045Z,0
2017-02-01T02:19:42.769Z,0
2017-02-01T02:20:52.492Z,0
2017-02-01T02:22:02.211Z,0
2017-02-01T02:23:12.812Z,0
2017-02-01T02:24:23.021Z,0
2017-02-01T02:25:33.184Z,0
2017-02-01T02:26:42.900Z,0
2017-02-01T02:27:53.057Z,0
2017-02-01T02:29:03.220Z,0
2017-02-01T02:30:12.549Z,0
2017-02-01T02:31:22.709Z,0
2017-02-01T02:32:32.426Z,0
2017-02-01T02:33:43.024Z,0
2017-02-01T02:34:52.322Z,0
2017-02-01T02:36:02.091Z,0
2017-02-01T02:37:11.816Z,0
2017-02-01T02:38:21.536Z,0
2017-02-01T02:39:31.253Z,0
2017-02-01T02:40:41.415Z,0
2017-02-01T02:41:51.287Z,0
2017-02-01T02:43:00.578Z,0
2017-02-01T02:44:09.855Z,0
2017-02-01T02:45:19.159Z,0
2017-02-01T02:46:29.317Z,0
2017-02-01T02:47:39.959Z,0
2017-02-01T02:48:49.685Z,0
2017-02-01T02:49:59.429Z,0
2017-02-01T02:51:10.031Z,0
2017-02-01T02:52:20.179Z,0
2017-02-01T02:53:30.826Z,0
2017-02-01T02:54:40.103Z,0
2017-02-01T02:55:49.817Z,0
2017-02-01T02:56:59.981Z,0
2017-02-01T02:58:09.699Z,0
2017-02-01T02:59:19.907Z,0
2017-02-01T03:00:30.504Z,0
2017-02-01T03:01:41.543Z,0
2017-02-01T03:02:51.252Z,0
2017-02-01T03:04:00.970Z,0
2017-02-01T03:05:11.611Z,0
2017-02-01T03:06:21.327Z,0
2017-02-01T03:07:30.602Z,0
2017-02-01T03:08:40.789Z,0
2017-02-01T03:09:50.936Z,0
2017-02-01T03:11:00.713Z,0
2017-02-01T03:12:10.434Z,0
2017-02-01T03:13:20.594Z,0
2017-02-01T03:14:31.193Z,0
2017-02-01T03:15:40.914Z,0
2017-02-01T03:16:50.687Z,0
2017-02-01T03:18:00.845Z,0
2017-02-01T03:19:10.125Z,0
2017-02-01T03:20:19.849Z,0
2017-02-01T03:21:30.007Z,0
2017-02-01T03:22:40.209Z,0
2017-02-01T03:23:49.931Z,0
2017-02-01T03:25:00.081Z,0
2017-02-01T03:26:09.800Z,0
2017-02-01T03:27:20.394Z,0
2017-02-01T03:28:30.162Z,0
2017-02-01T03:29:39.885Z,0
2017-02-01T03:30:50.051Z,0
2017-02-01T03:31:59.785Z,0
2017-02-01T03:33:09.949Z,0
2017-02-01T03:34:19.289Z,0
2017-02-01T03:35:29.446Z,0
2017-02-01T03:36:39.597Z,0
2017-02-01T03:37:48.882Z,0
2017-02-01T03:38:58.627Z,0
2017-02-01T03:40:08.399Z,0
2017-02-01T03:41:18.118Z,0
2017-02-01T03:42:28.279Z,0
2017-02-01T03:43:38.469Z,0
2017-02-01T03:44:48.190Z,0
2017-02-01T03:45:57.523Z,0
2017-02-01T03:47:07.236Z,0
2017-02-01T03:48:16.524Z,0
2017-02-01T03:49:26.682Z,0
2017-02-01T03:50:35.967Z,0
2017-02-01T03:51:45.730Z,0
2017-02-01T03:52:55.015Z,0
2017-02-01T03:54:05.170Z,0
2017-02-01T03:55:15.326Z,0
2017-02-01T03:56:24.610Z,0
2017-02-01T03:57:34.410Z,0
2017-02-01T03:58:43.696Z,0
2017-02-01T03:59:53.849Z,0
2017-02-01T04:01:03.566Z,0
2017-02-01T04:02:13.721Z,0
2017-02-01T04:03:23.052Z,0
2017-02-01T04:04:33.648Z,0
2017-02-01T04:05:42.927Z,0
2017-02-01T04:06:53.528Z,0
2017-02-01T04:08:03.688Z,0
2017-02-01T04:09:13.896Z,0
2017-02-01T04:10:23.608Z,0
2017-02-01T04:11:33.773Z,0
2017-02-01T04:12:43.936Z,0
2017-02-01T04:13:53.221Z,0
2017-02-01T04:15:02.551Z,0
2017-02-01T04:16:12.267Z,0
2017-02-01T04:17:22.425Z,0
2017-02-01T04:18:31.718Z,0
2017-02-01T04:19:41.432Z,0
2017-02-01T04:20:51.205Z,0
2017-02-01T04:22:01.790Z,0
2017-02-01T04:23:11.952Z,0
2017-02-01T04:24:21.676Z,0
2017-02-01T04:25:32.268Z,0
2017-02-01T04:26:42.912Z,0
2017-02-01T04:27:52.629Z,0
2017-02-01T04:29:02.354Z,0
2017-02-01T04:30:11.639Z,0
2017-02-01T04:31:20.925Z,0
2017-02-01T04:32:31.132Z,0
2017-02-01T04:33:40.855Z,0
2017-02-01T04:34:50.574Z,0
2017-02-01T04:36:00.297Z,0
2017-02-01T04:37:10.450Z,0
2017-02-01T04:38:20.228Z,0
2017-02-01T04:39:30.387Z,0
2017-02-01T04:40:40.541Z,0
2017-02-01T04:41:51.131Z,0
2017-02-01T04:43:00.861Z,0
2017-02-01T04:44:10.634Z,0
2017-02-01T04:45:20.351Z,0
2017-02-01T04:46:30.069Z,0
2017-02-01T04:47:39.788Z,0
2017-02-01T04:48:50.385Z,0
2017-02-01T04:50:00.594Z,0
2017-02-01T04:51:10.329Z,0
2017-02-01T04:52:19.621Z,0
2017-02-01T04:53:29.779Z,0
2017-02-01T04:54:39.067Z,0
2017-02-01T04:55:49.278Z,0
2017-02-01T04:56:58.993Z,0
2017-02-01T04:58:08.720Z,0
2017-02-01T04:59:18.001Z,0
2017-02-01T05:00:28.155Z,0
2017-02-01T05:01:38.362Z,0
2017-02-01T05:02:48.526Z,0
2017-02-01T05:03:58.686Z,0
2017-02-01T05:05:08.406Z,0
2017-02-01T05:06:19.001Z,0
2017-02-01T05:07:28.337Z,0
2017-02-01T05:08:38.058Z,0
2017-02-01T05:09:47.782Z,0
2017-02-01T05:10:57.932Z,0
2017-02-01T05:12:08.534Z,0
2017-02-01T05:13:18.918Z,0
2017-02-01T05:14:29.511Z,0
2017-02-01T05:15:39.228Z,0
2017-02-01T05:16:49.821Z,0
2017-02-01T05:17:59.971Z,0
2017-02-01T05:19:09.742Z,0
2017-02-01T05:20:19.459Z,0
2017-02-01T05:21:29.171Z,0
2017-02-01T05:22:39.317Z,0
2017-02-01T05:23:49.473Z,0
2017-02-01T05:24:58.808Z,0
2017-02-01T05:26:08.973Z,0
2017-02-01T05:27:18.248Z,0
2017-02-01T05:28:28.411Z,0
2017-02-01T05:29:38.127Z,0
2017-02-01T05:30:47.466Z,0
2017-02-01T05:31:57.187Z,0
2017-02-01T05:33:07.340Z,0
2017-02-01T05:34:16.624Z,0
2017-02-01T05:35:26.342Z,0
2017-02-01T05:36:36.554Z,0
2017-02-01T05:37:45.831Z,0
2017-02-01T05:38:55.553Z,0
2017-02-01T05:40:05.273Z,0
2017-02-01T05:41:14.992Z,0
2017-02-01T05:42:24.765Z,0
2017-02-01T05:43:34.490Z,0
2017-02-01T05:44:44.216Z,0
2017-02-01T05:45:53.499Z,0
2017-02-01T05:47:03.218Z,0
2017-02-01T05:48:12.987Z,0
2017-02-01T05:49:22.268Z,0
2017-02-01T05:50:32.432Z,0
2017-02-01T05:51:42.591Z,0
2017-02-01T05:52:52.311Z,0
2017-02-01T05:54:02.515Z,0
2017-02-01T05:55:12.674Z,0
2017-02-01T05:56:22.827Z,0
2017-02-01T05:57:32.987Z,0
2017-02-01T05:58:42.704Z,0
2017-02-01T05:59:53.342Z,0
2017-02-01T06:01:03.505Z,0
2017-02-01T06:02:13.676Z,0
2017-02-01T06:03:23.830Z,0
2017-02-01T06:04:33.990Z,0
2017-02-01T06:05:44.197Z,0
2017-02-01T06:06:53.916Z,0
2017-02-01T06:08:04.074Z,0
2017-02-01T06:09:13.802Z,0
2017-02-01T06:10:23.526Z,0
2017-02-01T06:11:32.857Z,0
2017-02-01T06:12:43.010Z,0
2017-02-01T06:13:52.741Z,0
2017-02-01T06:15:02.457Z,0
2017-02-01T06:16:11.738Z,0
2017-02-01T06:17:21.505Z,0
2017-02-01T06:18:31.228Z,0
2017-02-01T06:19:41.391Z,0
2017-02-01T06:20:51.109Z,0
2017-02-01T06:22:00.837Z,0
2017-02-01T06:23:10.609Z,0
2017-02-01T06:24:20.766Z,0
2017-02-01T06:25:30.052Z,0
2017-02-01T06:26:40.218Z,0
2017-02-01T06:27:50.814Z,0
2017-02-01T06:29:00.601Z,0
2017-02-01T06:30:10.318Z,0
2017-02-01T06:31:20.476Z,0
2017-02-01T06:32:30.635Z,0
2017-02-01T06:33:40.355Z,0
2017-02-01T06:34:50.125Z,0
2017-02-01T06:35:59.882Z,0
2017-02-01T06:37:10.479Z,0
2017-02-01T06:38:19.764Z,0
2017-02-01T06:39:29.043Z,0
2017-02-01T06:40:39.250Z,0
2017-02-01T06:41:48.530Z,0
2017-02-01T06:42:58.275Z,0
2017-02-01T06:44:07.556Z,0
2017-02-01T06:45:18.140Z,0
2017-02-01T06:46:27.907Z,0
2017-02-01T06:47:37.622Z,0
2017-02-01T06:48:48.220Z,0
2017-02-01T06:49:58.382Z,0
2017-02-01T06:51:08.101Z,0
2017-02-01T06:52:17.437Z,0
2017-02-01T06:53:26.714Z,0
2017-02-01T06:54:36.875Z,0
2017-02-01T06:55:47.030Z,0
2017-02-01T06:56:58.066Z,0
2017-02-01T06:58:07.838Z,0
2017-02-01T06:59:17.122Z,0
2017-02-01T07:00:26.875Z,0
2017-02-01T07:01:37.042Z,0
2017-02-01T07:02:46.326Z,0
2017-02-01T07:03:56.532Z,0
2017-02-01T07:05:05.831Z,0
2017-02-01T07:06:15.554Z,0
2017-02-01T07:07:24.831Z,0
2017-02-01T07:08:34.992Z,0
2017-02-01T07:09:44.756Z,0
2017-02-01T07:10:55.351Z,0
2017-02-01T07:12:04.663Z,0
2017-02-01T07:13:14.379Z,0
2017-02-01T07:14:24.538Z,0
2017-02-01T07:15:34.310Z,0
2017-02-01T07:16:44.034Z,0
2017-02-01T07:17:53.753Z,0
2017-02-01T07:19:03.935Z,5
2017-02-01T07:20:13.648Z,5
2017-02-01T07:21:23.412Z,5
2017-02-01T07:22:33.577Z,5
2017-02-01T07:23:43.732Z,5
2017-02-01T07:24:53.016Z,5
2017-02-01T07:26:02.737Z,5
2017-02-01T07:27:13.385Z,5
2017-02-01T07:28:23.979Z,5
2017-02-01T07:29:34.576Z,5
2017-02-01T07:30:45.175Z,5
2017-02-01T07:31:55.334Z,5
2017-02-01T07:33:05.108Z,5
2017-02-01T07:34:14.854Z,5
2017-02-01T07:35:24.135Z,5
2017-02-01T07:36:33.857Z,5
2017-02-01T07:37:43.140Z,5
2017-02-01T07:38:53.352Z,5
2017-02-01T07:40:03.504Z,5
2017-02-01T07:41:13.241Z,5
2017-02-01T07:42:23.397Z,5
2017-02-01T07:43:33.556Z,5
2017-02-01T07:44:42.896Z,5
2017-02-01T07:45:53.495Z,10
2017-02-01T07:47:03.223Z,10
2017-02-01T07:48:12.939Z,10
2017-02-01T07:49:23.533Z,10
2017-02-01T07:50:32.862Z,10
2017-02-01T07:51:42.138Z,10
2017-02-01T07:52:52.298Z,10
2017-02-01T07:54:02.021Z,10
2017-02-01T07:55:11.743Z,10
2017-02-01T07:56:21.080Z,10
2017-02-01T07:57:31.251Z,10
2017-02-01T07:58:40.966Z,10
2017-02-01T07:59:50.259Z,10
2017-02-01T08:01:00.409Z,10
2017-02-01T08:02:09.743Z,10
2017-02-01T08:03:19.898Z,15
2017-02-01T08:04:30.060Z,15
2017-02-01T08:05:39.773Z,15
2017-02-01T08:06:49.932Z,15
2017-02-01T08:07:59.699Z,15
2017-02-01T08:09:09.410Z,15
2017-02-01T08:10:19.561Z,15
2017-02-01T08:11:28.839Z,15
2017-02-01T08:12:38.992Z,15
2017-02-01T08:13:48.767Z,15
2017-02-01T08:14:58.483Z,20
2017-02-01T08:16:08.200Z,20
2017-02-01T08:17:18.363Z,20
2017-02-01T08:18:27.650Z,20
2017-02-01T08:19:38.009Z,20
2017-02-01T08:20:47.728Z,20
2017-02-01T08:21:57.882Z,20
2017-02-01T08:23:07.603Z,20
2017-02-01T08:24:18.199Z,20
2017-02-01T08:25:27.973Z,20
2017-02-01T08:26:37.252Z,20
2017-02-01T08:27:46.972Z,20
2017-02-01T08:28:57.125Z,20
2017-02-01T08:30:07.722Z,20
2017-02-01T08:31:17.491Z,20
2017-02-01T08:32:27.648Z,20
2017-02-01T08:33:37.814Z,20
2017-02-01T08:34:47.978Z,20
2017-02-01T08:35:57.279Z,20
2017-02-01T08:37:07.062Z,20
2017-02-01T08:38:16.786Z,20
2017-02-01T08:39:26.509Z,20
2017-02-01T08:40:36.225Z,20
2017-02-01T08:41:46.378Z,20
2017-02-01T08:42:56.149Z,20
2017-02-01T08:44:06.309Z,20
2017-02-01T08:45:15.584Z,20
2017-02-01T08:46:25.741Z,25
2017-02-01T08:47:35.463Z,25
2017-02-01T08:48:45.665Z,25
2017-02-01T08:49:55.381Z,25
2017-02-01T08:51:05.538Z,25
2017-02-01T08:52:15.708Z,25
2017-02-01T08:53:25.869Z,25
2017-02-01T08:54:35.215Z,25
2017-02-01T08:55:44.927Z,25
2017-02-01T08:56:55.524Z,25
2017-02-01T08:58:05.677Z,25
2017-02-01T08:59:15.403Z,25
2017-02-01T09:00:25.277Z,30
2017-02-01T09:01:34.996Z,30
2017-02-01T09:02:44.727Z,30
2017-02-01T09:03:54.438Z,30
2017-02-01T09:05:05.032Z,30
2017-02-01T09:06:15.698Z,30
2017-02-01T09:07:25.418Z,30
2017-02-01T09:08:35.167Z,30
2017-02-01T09:09:44.884Z,30
2017-02-01T09:10:55.043Z,30
2017-02-01T09:12:04.379Z,30
2017-02-01T09:13:15.418Z,30
2017-02-01T09:14:25.137Z,30
2017-02-01T09:15:35.735Z,30
2017-02-01T09:16:45.029Z,30
2017-02-01T09:17:54.798Z,30
2017-02-01T09:19:04.527Z,35
2017-02-01T09:20:14.688Z,35
2017-02-01T09:21:24.423Z,35
2017-02-01T09:22:34.141Z,40
2017-02-01T09:23:43.915Z,35
2017-02-01T09:24:54.079Z,35
2017-02-01T09:26:03.800Z,35
2017-02-01T09:27:13.527Z,35
2017-02-01T09:28:22.807Z,35
2017-02-01T09:29:33.450Z,30
2017-02-01T09:30:43.175Z,30
2017-02-01T09:31:53.335Z,30
2017-02-01T09:33:03.068Z,35
2017-02-01T09:34:12.350Z,30
2017-02-01T09:35:22.132Z,30
2017-02-01T09:36:31.855Z,25
2017-02-01T09:37:42.458Z,35
2017-02-01T09:38:51.755Z,35
2017-02-01T09:40:01.044Z,30
2017-02-01T09:41:10.925Z,30
2017-02-01T09:42:20.642Z,30
2017-02-01T09:43:29.926Z,30
2017-02-01T09:44:39.657Z,30
2017-02-01T09:45:48.948Z,35
2017-02-01T09:46:58.723Z,35
2017-02-01T09:48:08.448Z,30
2017-02-01T09:49:17.729Z,35
2017-02-01T09:50:27.455Z,35
2017-02-01T09:51:37.614Z,35
2017-02-01T09:52:47.821Z,35
2017-02-01T09:53:57.110Z,35
2017-02-01T09:55:06.402Z,30
2017-02-01T09:56:17.002Z,30
2017-02-01T09:57:26.731Z,35
2017-02-01T09:58:36.943Z,35
2017-02-01T09:59:47.537Z,40
2017-02-01T10:00:57.697Z,40
2017-02-01T10:02:07.414Z,40
2017-02-01T10:03:18.007Z,35
2017-02-01T10:04:28.216Z,45
2017-02-01T10:05:38.380Z,40
2017-02-01T10:06:48.530Z,40
2017-02-01T10:07:59.133Z,35
2017-02-01T10:09:09.291Z,35
2017-02-01T10:10:18.618Z,45
2017-02-01T10:11:28.783Z,45
2017-02-01T10:12:39.375Z,40
2017-02-01T10:13:49.973Z,40
2017-02-01T10:15:00.130Z,45
2017-02-01T10:16:10.774Z,40
2017-02-01T10:17:20.517Z,35
2017-02-01T10:18:30.670Z,45
2017-02-01T10:19:41.269Z,45
2017-02-01T10:20:50.557Z,40
2017-02-01T10:22:00.767Z,35
2017-02-01T10:23:10.833Z,35
2017-02-01T10:24:20.119Z,40
2017-02-01T10:25:30.311Z,40
2017-02-01T10:26:40.024Z,45
2017-02-01T10:27:49.792Z,40
2017-02-01T10:28:59.515Z,40
2017-02-01T10:30:08.810Z,35
2017-02-01T10:31:18.970Z,30
2017-02-01T10:32:28.252Z,30
2017-02-01T10:33:38.463Z,35
2017-02-01T10:34:48.180Z,35
2017-02-01T10:35:58.339Z,35
2017-02-01T10:37:07.631Z,30
2017-02-01T10:38:17.355Z,30
2017-02-01T10:39:27.128Z,40
2017-02-01T10:40:36.417Z,40
2017-02-01T10:41:46.588Z,35
2017-02-01T10:42:55.870Z,35
2017-02-01T10:44:05.163Z,35
2017-02-01T10:45:14.647Z,35
2017-02-01T10:46:24.807Z,40
2017-02-01T10:47:34.970Z,40
2017-02-01T10:48:44.691Z,35
2017-02-01T10:49:54.848Z,40
2017-02-01T10:51:04.181Z,40
2017-02-01T10:52:14.365Z,40
2017-02-01T10:53:24.086Z,40
2017-02-01T10:54:34.240Z,40
2017-02-01T10:55:43.962Z,45
2017-02-01T10:56:53.726Z,45
2017-02-01T10:58:03.885Z,50
2017-02-01T10:59:14.041Z,45
2017-02-01T11:00:23.760Z,40
2017-02-01T11:01:33.508Z,45
2017-02-01T11:02:43.271Z,45
2017-02-01T11:03:53.437Z,40
2017-02-01T11:05:03.606Z,40
2017-02-01T11:06:13.767Z,45
2017-02-01T11:07:23.493Z,40
2017-02-01T11:08:32.824Z,40
2017-02-01T11:09:42.980Z,40
2017-02-01T11:10:52.708Z,40
2017-02-01T11:12:01.987Z,40
2017-02-01T11:13:12.152Z,35
2017-02-01T11:14:21.486Z,40
2017-02-01T11:15:30.764Z,40
2017-02-01T11:16:40.935Z,50
2017-02-01T11:17:50.654Z,50
2017-02-01T11:19:00.803Z,50
2017-02-01T11:20:11.006Z,50
2017-02-01T11:21:20.726Z,50
2017-02-01T11:22:30.443Z,50
2017-02-01T11:23:40.165Z,50
2017-02-01T11:24:50.327Z,55
2017-02-01T11:25:59.767Z,50
2017-02-01T11:27:09.056Z,55
2017-02-01T11:28:19.653Z,60
2017-02-01T11:29:28.929Z,60
2017-02-01T11:30:39.084Z,55
2017-02-01T11:31:48.423Z,55
2017-02-01T11:32:58.578Z,55
2017-02-01T11:34:08.302Z,55
2017-02-01T11:35:18.908Z,50
2017-02-01T11:36:28.627Z,55
2017-02-01T11:37:38.862Z,50
2017-02-01T11:38:48.591Z,55
2017-02-01T11:39:57.870Z,55
2017-02-01T11:41:08.468Z,55
2017-02-01T11:42:18.179Z,60
2017-02-01T11:43:28.384Z,55
2017-02-01T11:44:37.672Z,50
2017-02-01T11:45:47.828Z,55
2017-02-01T11:46:57.987Z,55
2017-02-01T11:48:07.734Z,50
2017-02-01T11:49:17.941Z,50
2017-02-01T11:50:27.217Z,50
2017-02-01T11:51:36.939Z,50
2017-02-01T11:52:46.254Z,50
2017-02-01T11:53:55.984Z,45
2017-02-01T11:55:06.633Z,45
2017-02-01T11:56:16.370Z,45
2017-02-01T11:57:26.091Z,45
2017-02-01T11:58:36.249Z,50
2017-02-01T11:59:46.413Z,55
2017-02-01T12:00:57.055Z,55
2017-02-01T12:02:06.781Z,45
2017-02-01T12:03:16.517Z,45
2017-02-01T12:04:26.242Z,45
2017-02-01T12:05:35.965Z,60
2017-02-01T12:06:45.295Z,55
2017-02-01T12:07:55.450Z,50
2017-02-01T12:09:05.169Z,50
2017-02-01T12:10:15.336Z,60
2017-02-01T12:11:25.053Z,55
2017-02-01T12:12:34.855Z,50
2017-02-01T12:13:45.043Z,50
2017-02-01T12:14:54.333Z,50
2017-02-01T12:16:04.489Z,50
2017-02-01T12:17:14.213Z,55
2017-02-01T12:18:23.992Z,55
2017-02-01T12:19:33.707Z,60
2017-02-01T12:20:44.299Z,60
2017-02-01T12:21:54.462Z,60
2017-02-01T12:23:03.746Z,65
2017-02-01T12:24:13.527Z,65
2017-02-01T12:25:22.810Z,60
2017-02-01T12:26:32.535Z,60
2017-02-01T12:27:43.131Z,60
2017-02-01T12:28:53.286Z,60
2017-02-01T12:30:03.932Z,55
2017-02-01T12:31:14.090Z,55
2017-02-01T12:32:24.247Z,60
2017-02-01T12:33:34.409Z,65
2017-02-01T12:34:44.569Z,60
2017-02-01T12:35:53.926Z,65
2017-02-01T12:37:03.211Z,65
2017-02-01T12:38:12.491Z,75
2017-02-01T12:39:21.774Z,80
2017-02-01T12:40:31.062Z,80
2017-02-01T12:41:41.707Z,85
2017-02-01T12:42:52.311Z,80
2017-02-01T12:44:02.469Z,70
2017-02-01T12:45:13.502Z,65
2017-02-01T12:46:23.660Z,60
2017-02-01T12:47:33.876Z,65
2017-02-01T12:48:44.035Z,70
2017-02-01T12:49:53.755Z,60
2017-02-01T12:51:04.447Z,50
2017-02-01T12:52:14.608Z,65
2017-02-01T12:53:24.413Z,45
2017-02-01T12:54:34.573Z,50
2017-02-01T12:55:44.302Z,50
2017-02-01T12:56:54.463Z,55
2017-02-01T12:58:04.623Z,50
2017-02-01T12:59:13.982Z,40
2017-02-01T13:01:32.940Z,40
2017-02-01T13:02:43.098Z,55
2017-02-01T13:03:52.814Z,50
2017-02-01T13:05:03.015Z,50
2017-02-01T13:06:13.165Z,50
2017-02-01T13:07:23.327Z,50
2017-02-01T13:08:33.481Z,60
2017-02-01T13:09:43.193Z,65
2017-02-01T13:10:53.832Z,55
2017-02-01T13:12:03.137Z,50
2017-02-01T13:13:12.423Z,65
2017-02-01T13:14:21.703Z,60
2017-02-01T13:15:31.422Z,60
2017-02-01T13:16:42.052Z,55
2017-02-01T13:17:52.207Z,60
2017-02-01T13:19:01.928Z,60
2017-02-01T13:20:12.516Z,65
2017-02-01T13:21:21.797Z,65
2017-02-01T13:22:31.764Z,65
2017-02-01T13:23:41.481Z,60
2017-02-01T13:24:51.198Z,60
2017-02-01T13:26:00.481Z,60
2017-02-01T13:27:10.204Z,55
2017-02-01T13:28:19.964Z,55
2017-02-01T13:29:30.987Z,55
2017-02-01T13:30:40.272Z,50
2017-02-01T13:31:49.548Z,50
2017-02-01T13:32:59.702Z,50
2017-02-01T13:34:09.479Z,50
2017-02-01T13:35:19.200Z,50
2017-02-01T13:36:29.359Z,45
2017-02-01T13:37:39.079Z,50
2017-02-01T13:38:48.792Z,45
2017-02-01T13:39:59.869Z,35
2017-02-01T13:41:09.593Z,35
2017-02-01T13:42:20.192Z,30
2017-02-01T13:43:29.920Z,35
2017-02-01T13:44:40.075Z,30
2017-02-01T13:45:49.410Z,35
2017-02-01T13:46:59.563Z,35
2017-02-01T13:48:09.316Z,30
2017-02-01T13:49:19.039Z,30
2017-02-01T13:50:29.189Z,35
2017-02-01T13:51:39.399Z,35
2017-02-01T13:52:49.113Z,30
2017-02-01T13:53:58.838Z,30
2017-02-01T13:55:08.120Z,30
2017-02-01T13:56:18.284Z,30
2017-02-01T13:57:28.080Z,30
2017-02-01T13:58:37.358Z,30
2017-02-01T13:59:47.515Z,30
2017-02-01T14:00:57.688Z,35
2017-02-01T14:02:07.846Z,35
2017-02-01T14:03:17.619Z,25
2017-02-01T14:04:27.338Z,25
2017-02-01T14:05:37.049Z,25
2017-02-01T14:06:47.661Z,25
2017-02-01T14:07:57.382Z,20
2017-02-01T14:09:07.151Z,20
2017-02-01T14:10:16.872Z,20
2017-02-01T14:11:26.590Z,20
2017-02-01T14:12:35.870Z,15
2017-02-01T14:13:45.156Z,20
2017-02-01T14:14:54.922Z,20
2017-02-01T14:16:04.643Z,20
2017-02-01T14:17:14.364Z,20
2017-02-01T14:18:24.521Z,20
2017-02-01T14:19:34.250Z,20
2017-02-01T14:20:44.492Z,20
2017-02-01T14:21:54.648Z,20
2017-02-01T14:23:04.802Z,20
2017-02-01T14:24:14.520Z,20
2017-02-01T14:25:24.235Z,20
2017-02-01T14:26:34.436Z,20
2017-02-01T14:27:44.596Z,20
2017-02-01T14:28:53.875Z,20
2017-02-01T14:30:04.891Z,20
2017-02-01T14:31:16.638Z,15
2017-02-01T14:32:29.531Z,20
2017-02-01T14:33:42.269Z,15
2017-02-01T14:34:54.278Z,20
2017-02-01T14:36:07.516Z,20
2017-02-01T14:37:19.565Z,20
2017-02-01T14:38:31.462Z,20
2017-02-01T14:39:43.739Z,20
2017-02-01T14:40:56.372Z,20
2017-02-01T14:42:06.558Z,20
2017-02-01T14:43:16.356Z,20
2017-02-01T14:44:25.634Z,20
2017-02-01T14:45:34.915Z,20
2017-02-01T14:46:44.195Z,20
2017-02-01T14:47:53.922Z,15
2017-02-01T14:49:03.253Z,15
2017-02-01T14:50:13.411Z,15
2017-02-01T14:51:23.122Z,20
2017-02-01T14:52:33.275Z,25
2017-02-01T14:53:42.995Z,20
2017-02-01T14:54:54.065Z,20
2017-02-01T14:56:03.785Z,20
2017-02-01T14:57:13.507Z,25
2017-02-01T14:58:23.223Z,25
2017-02-01T14:59:33.383Z,25
2017-02-01T15:00:43.588Z,20
2017-02-01T15:01:52.912Z,20
2017-02-01T15:03:02.626Z,20
2017-02-01T15:04:12.340Z,15
2017-02-01T15:05:21.624Z,15
2017-02-01T15:06:31.390Z,15
2017-02-01T15:07:41.107Z,15
2017-02-01T15:08:51.269Z,15
2017-02-01T15:10:00.548Z,15
2017-02-01T15:11:10.705Z,15
2017-02-01T15:12:21.351Z,10
2017-02-01T15:13:31.076Z,10
2017-02-01T15:14:41.229Z,10
2017-02-01T15:15:50.949Z,10
2017-02-01T15:17:01.100Z,10
2017-02-01T15:18:10.869Z,10
2017-02-01T15:19:21.459Z,10
2017-02-01T15:20:31.617Z,10
2017-02-01T15:21:41.764Z,10
2017-02-01T15:22:51.490Z,10
2017-02-01T15:24:01.255Z,10
2017-02-01T15:25:11.408Z,10
2017-02-01T15:26:21.557Z,10
2017-02-01T15:27:31.281Z,10
2017-02-01T15:28:40.992Z,10
2017-02-01T15:29:51.629Z,10
2017-02-01T15:31:01.350Z,10
2017-02-01T15:32:11.069Z,10
2017-02-01T15:33:20.784Z,5
2017-02-01T15:34:30.940Z,5
2017-02-01T15:35:40.709Z,5
2017-02-01T15:36:49.994Z,5
2017-02-01T15:38:00.146Z,5
2017-02-01T15:39:10.308Z,5
2017-02-01T15:40:20.020Z,5
2017-02-01T15:41:30.230Z,5
2017-02-01T15:42:39.946Z,5
2017-02-01T15:43:50.105Z,5
2017-02-01T15:44:59.821Z,5
2017-02-01T15:46:09.542Z,5
2017-02-01T15:47:19.313Z,5
2017-02-01T15:48:28.592Z,5
2017-02-01T15:49:38.315Z,0
2017-02-01T15:50:48.035Z,0
2017-02-01T15:51:58.216Z,0
2017-02-01T15:53:07.997Z,0
2017-02-01T15:54:18.594Z,0
2017-02-01T15:55:28.749Z,0
2017-02-01T15:56:38.474Z,0
2017-02-01T15:57:47.754Z,0
2017-02-01T15:58:57.957Z,0
2017-02-01T16:00:07.672Z,0
2017-02-01T16:01:17.398Z,0
2017-02-01T16:02:27.119Z,0
2017-02-01T16:03:38.933Z,0
2017-02-01T16:04:51.749Z,0
2017-02-01T16:06:04.918Z,0
2017-02-01T16:07:16.155Z,0
2017-02-01T16:08:29.049Z,0
2017-02-01T16:09:43.138Z,0
2017-02-01T16:10:54.716Z,0
2017-02-01T16:12:06.957Z,0
2017-02-01T16:13:20.974Z,0
2017-02-01T16:14:32.659Z,0
2017-02-01T16:15:45.569Z,0
2017-02-01T16:16:57.469Z,0
2017-02-01T16:18:10.823Z,0
2017-02-01T16:19:24.834Z,0
2017-02-01T16:20:38.395Z,0
2017-02-01T16:21:52.326Z,0
2017-02-01T16:23:02.224Z,0
2017-02-01T16:24:11.505Z,0
2017-02-01T16:25:20.784Z,0
2017-02-01T16:26:30.687Z,0
2017-02-01T16:27:40.529Z,0
2017-02-01T16:28:51.492Z,0
2017-02-01T16:30:01.084Z,0
2017-02-01T16:31:10.604Z,0
2017-02-01T16:32:21.246Z,0
2017-02-01T16:33:30.855Z,0
2017-02-01T16:34:40.995Z,0
2017-02-01T16:35:51.587Z,0
2017-02-01T16:37:01.307Z,0
2017-02-01T16:38:11.520Z,0
2017-02-01T16:39:21.670Z,0
2017-02-01T16:40:31.324Z,0
2017-02-01T16:41:40.967Z,0
2017-02-01T16:42:51.764Z,0
2017-02-01T16:44:01.534Z,0
2017-02-01T16:45:11.689Z,0
2017-02-01T16:46:21.400Z,0
2017-02-01T16:47:31.594Z,0
2017-02-01T16:48:41.747Z,0
2017-02-01T16:49:51.756Z,0
2017-02-01T16:51:01.699Z,0
2017-02-01T16:52:11.419Z,0
2017-02-01T16:53:21.136Z,0
2017-02-01T16:54:31.289Z,0
2017-02-01T16:55:41.058Z,0
2017-02-01T16:56:50.780Z,0
2017-02-01T16:58:00.067Z,0
2017-02-01T16:59:10.222Z,0